Metar Cercanos

 

LEPA - Palma De Mallorc, Spain
Distance from station: ONO 38km
Actualización: 16/08/2018 03:30
Few Clouds
Few Clouds
 Viento del NE
Viento: NE 6 km/h
Temperatura: 21°C
Rocío: 18°C
Humedad: 83%
Barómetro: 1016 hPa
Clouds: Few Clouds
Visibility: 10 km
Cloud details: Few Clouds 762 m
2018/08/16 01:30 LEPA 160130Z 04003KT 9999 FEW025 21/18 Q1016 NOSIG
LEMH - Mahon/Menorca Is, Spain
Distance from station: ENE 105km
Actualización: 16/08/2018 03:30
Despejado
Despejado
 Viento del NO
Viento: NO 7 km/h
Temperatura: 21°C
Rocío: 17°C
Humedad: 78%
Barómetro: 1016 hPa
Clouds: Despejado
Visibility: 10 km
2018/08/16 01:30 LEMH 160130Z AUTO 32004KT 9999 NCD 21/17 Q1016
 
LEIB - Ibiza/Es Codola, Spain
Distance from station: OSO 165km
Actualización: 16/08/2018 03:30
Few Clouds
Few Clouds
 Viento del varies
Viento: varies 4 km/h
Temperatura: 23°C
Rocío: 19°C
Humedad: 78%
Barómetro: 1016 hPa
Clouds: Few Clouds
Visibility: 10 km
Cloud details: Few Clouds 610 m
2018/08/16 01:30 LEIB 160130Z VRB02KT 9999 FEW020 23/19 Q1016 NOSIG
LEBL - Barcelona Airpor, Spain
Distance from station: NNO 225km
Actualización: 16/08/2018 03:30
Few Clouds
Few Clouds
 Viento del NNO
Viento: NNO 13 km/h
Temperatura: 24°C
Rocío: 20°C
Humedad: 78%
Barómetro: 1016 hPa
Clouds: Few Clouds
Visibility: 10 km
Cloud details: Few Clouds 914 m
2018/08/16 01:30 LEBL 160130Z 33007KT 9999 FEW030 24/20 Q1016 NOSIG
 
LEVC - Valencia (civ/Mi, Spain
Distance from station: NO 188km
Actualización: 16/08/2018 03:30
Lluvia débil, Muy nuboso
Lluvia débil, Muy nuboso
 Viento del N
Viento: N 7 km/h
Temperatura: 26°C
Rocío: 23°C
Humedad: 84%
Barómetro: 1016 hPa
Resumen: Lluvia débil
Clouds: Muy nuboso
Visibility: 10 km
Cloud details: Few Clouds 610 m
Muy nuboso 1372 m
2018/08/16 01:30 LEVC 160130Z 35004KT 320V020 9999 -RA FEW020 BKN045 26/23 Q1016 NOSIG
LEGE - Gerona/Costa Bra, Spain
Distance from station: N 276km
Actualización: 16/08/2018 03:30
Few Clouds
Few Clouds
 Viento del calm
Viento: Calma
Temperatura: 17°C
Rocío: 16°C
Humedad: 94%
Barómetro: 1016 hPa
Clouds: Few Clouds
Visibility: 10 km
Cloud details: Few Clouds 1372 m
2018/08/16 01:30 LEGE 160130Z 00000KT 9999 FEW045 17/16 Q1016
 
LEAL - Alicante/El Alte, Spain
Distance from station: OSO 344km
Actualización: 16/08/2018 03:30
Muy nuboso
Muy nuboso
 Viento del O
Viento: O 6 km/h
Temperatura: 25°C
Rocío: 22°C
Humedad: 83%
Barómetro: 1016 hPa
Clouds: Muy nuboso
Visibility: 10 km
Cloud details: Muy nuboso 549 m
2018/08/16 01:30 LEAL 160130Z 28003KT 9999 BKN018 25/22 Q1016 NOSIG
LEAM - Almeria Airport, Spain
Distance from station: SSO 56km
Actualización: 16/08/2018 03:30
Despejado
Despejado
 Viento del calm
Viento: Calma
Temperatura: 26°C
Rocío: 22°C
Humedad: 79%
Barómetro: 1015 hPa
Clouds: Despejado
Visibility: 10 km
2018/08/16 01:30 LEAM 160130Z AUTO 00000KT 9999 NCD 26/22 Q1015
 
LEZG - Zaragoza (mil/Ci, Spain
Distance from station: NO 431km
Actualización: 16/08/2018 03:30
Parcialmente nuboso
Parcialmente nuboso
 Viento del E
Viento: E 9 km/h
Temperatura: 22°C
Rocío: 15°C
Humedad: 65%
Barómetro: 1016 hPa
Clouds: Parcialmente nuboso
Visibility: 10 km
Cloud details: Few Clouds 1219 m
Parcialmente nuboso 2591 m
2018/08/16 01:30 LEZG 160130Z 09005KT 9999 FEW040 SCT085 22/15 Q1016
LEMD - Madrid/Barajas, Spain
Distance from station: ONO 234km
Actualización: 16/08/2018 03:30
Despejado
Despejado
 Viento del E
Viento: E 6 km/h
Temperatura: 26°C
Rocío: 18°C
Humedad: 61%
Barómetro: 1016 hPa
Resumen: Despejado
Visibility: greater than 10 km
2018/08/16 01:30 LEMD 160130Z 09003KT 350V160 CAVOK 26/18 Q1016 NOSIG
 
LEGR - Granada Airport, Spain
Distance from station: OSO 62km
Actualización: 16/08/2018 03:30
Despejado
Despejado
 Viento del varies
Viento: varies 2 km/h
Temperatura: 21°C
Rocío: 15°C
Humedad: 69%
Barómetro: 1018 hPa
Clouds: Despejado
Visibility: 10 km
2018/08/16 01:30 LEGR 160130Z AUTO VRB01KT 9999 NCD 21/15 Q1018
LEMG - Malaga (civ/Mil), Spain
Distance from station: OSO 227km
Actualización: 16/08/2018 03:30
Parcialmente nuboso
Parcialmente nuboso
 Viento del S
Viento: S 4 km/h
Temperatura: 25°C
Rocío: 22°C
Humedad: 83%
Barómetro: 1016 hPa
Clouds: Parcialmente nuboso
Visibility: 10 km
Cloud details: Parcialmente nuboso 457 m
Parcialmente nuboso 1219 m
2018/08/16 01:30 LEMG 160130Z 17002KT 9999 SCT015 SCT040 25/22 Q1016 NOSIG
 
LEZL - Sevilla (civ/Mil, Spain
Distance from station: S 318km
Actualización: 16/08/2018 03:30
Muy nuboso
Muy nuboso
 Viento del SO
Viento: SO 9 km/h
Temperatura: 20°C
Rocío: 18°C
Humedad: 88%
Barómetro: 1017 hPa
Clouds: Muy nuboso
Visibility: 10 km
Cloud details: Muy nuboso 396 m
2018/08/16 01:30 LEZL 160130Z 23005KT 9999 BKN013 20/18 Q1017 NOSIG
LEVT - Vitoria, Spain
Distance from station: NO 226km
Actualización: 16/08/2018 03:30
Parcialmente nuboso
Parcialmente nuboso
 Viento del varies
Viento: varies 2 km/h
Temperatura: 14°C
Rocío: 14°C
Humedad: 100%
Barómetro: 1018 hPa
Clouds: Parcialmente nuboso
Visibility: 8 km
Cloud details: Parcialmente nuboso 305 m
2018/08/16 01:30 LEVT 160130Z VRB01KT 8000 SCT010 14/14 Q1018
 
LEBB - Bilbao/Sondica, Spain
Distance from station: NNO 235km
Actualización: 16/08/2018 03:30
Despejado
Despejado
 Viento del SSE
Viento: SSE 2 km/h
Temperatura: 17°C
Rocío: 17°C
Humedad: 100%
Barómetro: 1017 hPa
Clouds: Despejado
Visibility: 10 km
2018/08/16 01:30 LEBB 160130Z AUTO 16001KT 9999 NCD 17/17 Q1017
LESO - San Sebastian/Fu, Spain
Distance from station: N 231km
Actualización: 16/08/2018 03:30
Despejado
Despejado
 Viento del S
Viento: S 7 km/h
Temperatura: 20°C
Rocío: 18°C
Humedad: 88%
Barómetro: 1016 hPa
Clouds: Despejado
Visibility: 10 km
2018/08/16 01:30 LESO 160130Z AUTO 17004KT 9999 NCD 20/18 Q1016
 
LEVD - Valladolid(Mil/C, Spain
Distance from station: ONO 239km
Actualización: 15/08/2018 21:30
NOT Current
Despejado
Despejado
 Viento del N
Viento: N 7 km/h
Temperatura: 24°C
Rocío: 4°C
Humedad: 27%
Barómetro: 1017 hPa
Resumen: Despejado
Visibility: greater than 10 km
2018/08/15 19:30 LEVD 151930Z 36004KT CAVOK 24/04 Q1017
LESA - Salamanca (civ/M, Spain
Distance from station: ONO 349km
Actualización: 16/08/2018 03:30
Despejado
Despejado
 Viento del varies
Viento: varies 4 km/h
Temperatura: 14°C
Rocío: 12°C
Humedad: 88%
Barómetro: 1018 hPa
Clouds: Despejado
Visibility: 10 km
2018/08/16 01:30 LESA 160130Z AUTO VRB02KT 9999 NCD 14/12 Q1018
 
LEXJ - Santander/Paraya, Spain
Distance from station: NNO 247km
Actualización: 16/08/2018 03:30
Mist, Parcialmente nuboso
Mist, Parcialmente nuboso
 Viento del SO
Viento: SO 6 km/h
Temperatura: 19°C
Rocío: 19°C
Humedad: 100%
Barómetro: 1017 hPa
Resumen: Mist
Clouds: Parcialmente nuboso
Visibility: 5 km
Cloud details: Parcialmente nuboso 1219 m
2018/08/16 01:30 LEXJ 160130Z AUTO 22003KT 180V240 5000 BR SCT040 19/19 Q1017
LEAS - Asturias/Aviles, Spain
Distance from station: NO 214km
Actualización: 16/08/2018 03:30

 Viento del NO
Viento: NO 6 km/h
Visibility: 6 km
2018/08/16 01:30 LEAS 160130Z AUTO 31003KT 6000 1800 OVC030/// 19/18 Q1018
 
LECO - La Coruna/Alvedr, Spain
Distance from station: ONO 222km
Actualización: 16/08/2018 03:30
Despejado
Despejado
 Viento del N
Viento: N 6 km/h
Temperatura: 18°C
Rocío: 16°C
Humedad: 88%
Barómetro: 1018 hPa
Clouds: Despejado
Visibility: 10 km
2018/08/16 01:30 LECO 160130Z AUTO 35003KT 320V030 9999 NCD 18/16 Q1018
LEVX - Vigo/Peinador, Spain
Distance from station: O 214km
Actualización: 16/08/2018 03:30
Despejado
Despejado
 Viento del calm
Viento: Calma
Temperatura: 19°C
Rocío: 16°C
Humedad: 83%
Barómetro: 1016 hPa
Resumen: Despejado
Visibility: greater than 10 km
2018/08/16 01:30 LEVX 160130Z 00000KT CAVOK 19/16 Q1016 NOSIG